createdAt,value
2023-04-16T00:01:04.058Z,59.63
2023-04-16T00:03:32.478Z,53.50
2023-04-16T00:06:01.039Z,48.93
2023-04-16T00:08:29.361Z,52.07
2023-04-16T00:10:58.977Z,61.67
2023-04-16T00:13:27.831Z,51.17
2023-04-16T00:15:56.152Z,54.40
2023-04-16T00:18:24.529Z,54.60
2023-04-16T00:20:54.572Z,61.53
2023-04-16T00:23:24.963Z,56.37
2023-04-16T00:25:53.637Z,57.13
2023-04-16T00:28:23.323Z,52.83
2023-04-16T00:30:51.895Z,54.23
2023-04-16T00:33:20.244Z,56.37
2023-04-16T00:35:48.886Z,53.47
2023-04-16T00:38:17.287Z,52.07
2023-04-16T00:40:45.616Z,59.37
2023-04-16T00:43:13.908Z,55.67
2023-04-16T00:45:43.600Z,53.33
2023-04-16T00:48:11.857Z,58.03
2023-04-16T00:50:40.178Z,51.67
2023-04-16T00:53:08.423Z,56.03
2023-04-16T00:55:36.677Z,56.60
2023-04-16T00:58:05.244Z,51.97
2023-04-16T01:00:33.611Z,55.27
2023-04-16T01:03:03.343Z,57.13
2023-04-16T01:05:31.940Z,50.60
2023-04-16T01:08:01.165Z,56.63
2023-04-16T01:10:29.556Z,49.30
2023-04-16T01:12:57.903Z,51.40
2023-04-16T01:15:26.174Z,47.17
2023-04-16T01:17:54.467Z,54.63
2023-04-16T01:20:24.491Z,52.90
2023-04-16T01:22:54.394Z,49.57
2023-04-16T01:25:22.641Z,45.17
2023-04-16T01:27:51.512Z,49.97
2023-04-16T01:30:19.805Z,49.87
2023-04-16T01:32:48.206Z,52.07
2023-04-16T01:35:18.142Z,45.90
2023-04-16T01:37:46.534Z,47.10
2023-04-16T01:40:16.294Z,49.30
2023-04-16T01:42:44.589Z,52.07
2023-04-16T01:45:13.332Z,52.40
2023-04-16T01:47:41.825Z,51.97
2023-04-16T01:50:11.037Z,48.97
2023-04-16T01:52:39.305Z,51.23
2023-04-16T01:55:08.007Z,45.70
2023-04-16T01:57:37.624Z,50.60
2023-04-16T02:00:06.243Z,48.97
2023-04-16T02:02:34.584Z,47.57
2023-04-16T02:05:03.112Z,46.83
2023-04-16T02:07:32.660Z,52.73
2023-04-16T02:10:00.996Z,47.37
2023-04-16T02:12:29.308Z,49.97
2023-04-16T02:14:58.967Z,52.47
2023-04-16T02:17:27.266Z,48.67
2023-04-16T02:19:55.588Z,48.83
2023-04-16T02:22:23.837Z,49.67
2023-04-16T02:24:52.148Z,49.80
2023-04-16T02:27:20.483Z,45.13
2023-04-16T02:29:48.714Z,48.20
2023-04-16T02:32:18.386Z,45.53
2023-04-16T02:34:46.615Z,44.07
2023-04-16T02:37:15.663Z,43.57
2023-04-16T02:39:44.027Z,48.13
2023-04-16T02:42:12.307Z,47.73
2023-04-16T02:44:40.533Z,48.13
2023-04-16T02:47:08.761Z,42.13
2023-04-16T02:49:38.356Z,47.53
2023-04-16T02:52:06.824Z,45.43
2023-04-16T02:54:35.063Z,46.50
2023-04-16T02:57:03.442Z,49.80
2023-04-16T02:59:31.661Z,46.83
2023-04-16T03:01:59.957Z,44.00
2023-04-16T03:04:28.268Z,46.67
2023-04-16T03:06:57.932Z,43.40
2023-04-16T03:09:26.198Z,48.70
2023-04-16T03:11:54.460Z,49.43
2023-04-16T03:14:22.759Z,50.63
2023-04-16T03:16:51.240Z,45.67
2023-04-16T03:19:19.466Z,49.77
2023-04-16T03:21:47.664Z,47.27
2023-04-16T03:24:17.537Z,46.20
2023-04-16T03:26:45.781Z,45.63
2023-04-16T03:29:14.030Z,45.73
2023-04-16T03:31:42.430Z,42.03
2023-04-16T03:34:10.715Z,44.00
2023-04-16T03:36:38.929Z,45.13
2023-04-16T03:39:07.284Z,45.77
2023-04-16T03:41:37.185Z,43.13
2023-04-16T03:44:05.484Z,41.50
2023-04-16T03:46:33.704Z,39.90
2023-04-16T03:49:01.914Z,45.13
2023-04-16T03:51:30.104Z,44.03
2023-04-16T03:53:58.303Z,40.90
2023-04-16T03:56:26.514Z,38.70
2023-04-16T03:58:56.105Z,37.13
2023-04-16T04:01:24.385Z,38.43
2023-04-16T04:03:52.966Z,39.60
2023-04-16T04:06:21.289Z,35.73
2023-04-16T04:08:49.537Z,35.40
2023-04-16T04:11:17.736Z,38.43
2023-04-16T04:13:46.156Z,37.07
2023-04-16T04:16:15.893Z,36.80
2023-04-16T04:18:44.562Z,34.20
2023-04-16T04:21:12.871Z,39.90
2023-04-16T04:23:41.591Z,37.07
2023-04-16T04:26:10.106Z,39.03
2023-04-16T04:28:38.317Z,40.47
2023-04-16T04:31:06.760Z,36.70
2023-04-16T04:33:36.646Z,37.63
2023-04-16T04:36:04.988Z,37.67
2023-04-16T04:38:33.251Z,40.50
2023-04-16T04:41:01.510Z,36.13
2023-04-16T04:43:29.701Z,38.50
2023-04-16T04:45:57.948Z,39.07
2023-04-16T04:48:26.775Z,43.03
2023-04-16T04:50:56.414Z,38.13
2023-04-16T04:53:24.605Z,36.17
2023-04-16T04:55:55.574Z,34.40
2023-04-16T04:58:25.792Z,32.17
2023-04-16T05:00:54.072Z,34.43
2023-04-16T05:03:23.268Z,34.73
2023-04-16T05:05:51.692Z,33.73
2023-04-16T05:08:21.427Z,35.30
2023-04-16T05:10:49.657Z,37.47
2023-04-16T05:13:17.892Z,36.00
2023-04-16T05:15:46.145Z,35.17
2023-04-16T05:18:14.375Z,35.23
2023-04-16T05:20:42.618Z,36.00
2023-04-16T05:23:11.198Z,35.27
2023-04-16T05:25:40.718Z,37.70
2023-04-16T05:28:08.993Z,36.07
2023-04-16T05:30:37.256Z,33.10
2023-04-16T05:33:05.808Z,36.63
2023-04-16T05:35:35.050Z,34.93
2023-04-16T05:38:04.346Z,34.43
2023-04-16T05:40:33.119Z,31.77
2023-04-16T05:43:02.670Z,31.63
2023-04-16T05:45:31.244Z,32.23
2023-04-16T05:47:59.506Z,35.60
2023-04-16T05:50:27.774Z,36.57
2023-04-16T05:52:56.038Z,34.23
2023-04-16T05:55:24.256Z,35.63
2023-04-16T05:57:52.625Z,35.23
2023-04-16T06:00:22.474Z,37.30
2023-04-16T06:02:50.968Z,34.60
2023-04-16T06:05:19.383Z,35.53
2023-04-16T06:07:47.645Z,37.43
2023-04-16T06:10:15.924Z,36.10
2023-04-16T06:12:44.246Z,38.03
2023-04-16T06:15:13.113Z,32.57
2023-04-16T06:17:42.762Z,41.03
2023-04-16T06:20:11.569Z,34.70
2023-04-16T06:22:39.912Z,34.77
2023-04-16T06:25:08.492Z,37.87
2023-04-16T06:27:37.101Z,30.30
2023-04-16T06:30:05.449Z,31.43
2023-04-16T06:32:33.705Z,34.47
2023-04-16T06:37:58.353Z,32.90
2023-04-16T06:40:26.660Z,36.73
2023-04-16T06:42:55.325Z,32.37
2023-04-16T06:45:23.482Z,33.33
2023-04-16T06:47:52.435Z,35.17
2023-04-16T06:50:21.175Z,34.27
2023-04-16T06:52:49.384Z,31.50
2023-04-16T06:55:19.073Z,37.77
2023-04-16T06:57:47.289Z,33.03
2023-04-16T07:00:15.817Z,33.63
2023-04-16T07:02:44.237Z,33.40
2023-04-16T07:05:12.624Z,29.97
2023-04-16T07:07:40.830Z,30.53
2023-04-16T07:10:09.521Z,31.57
2023-04-16T07:12:39.157Z,31.10
2023-04-16T07:15:08.173Z,34.53
2023-04-16T07:17:36.471Z,33.43
2023-04-16T07:20:04.845Z,30.17
2023-04-16T07:22:33.056Z,32.00
2023-04-16T07:25:01.232Z,30.90
2023-04-16T07:27:29.463Z,29.67
2023-04-16T07:29:59.050Z,31.30
2023-04-16T07:32:27.333Z,30.57
2023-04-16T07:34:56.184Z,31.70
2023-04-16T07:37:24.399Z,31.07
2023-04-16T07:39:53.108Z,29.90
2023-04-16T07:42:21.558Z,34.27
2023-04-16T07:44:49.803Z,29.13
2023-04-16T07:47:19.428Z,29.80
2023-04-16T07:49:47.634Z,29.33
2023-04-16T07:52:15.883Z,29.27
2023-04-16T07:54:44.110Z,30.27
2023-04-16T07:57:12.574Z,30.40
2023-04-16T07:59:40.861Z,28.90
2023-04-16T08:02:09.901Z,30.33
2023-04-16T08:04:39.761Z,32.97
2023-04-16T08:07:08.137Z,29.50
2023-04-16T08:09:36.462Z,28.63
2023-04-16T08:12:05.151Z,29.00
2023-04-16T08:14:33.495Z,31.20
2023-04-16T08:17:01.792Z,29.57
2023-04-16T08:19:30.048Z,30.10
2023-04-16T08:21:59.595Z,27.47
2023-04-16T08:24:27.841Z,30.07
2023-04-16T08:27:02.417Z,28.47
2023-04-16T08:29:39.612Z,28.30
2023-04-16T08:32:09.502Z,29.83
2023-04-16T08:34:37.719Z,28.07
2023-04-16T08:37:07.310Z,28.00
2023-04-16T08:39:35.797Z,27.40
2023-04-16T08:42:06.541Z,27.87
2023-04-16T08:44:36.028Z,32.30
2023-04-16T08:47:05.004Z,26.33
2023-04-16T08:49:35.713Z,26.63
2023-04-16T08:52:06.168Z,25.80
2023-04-16T08:54:40.774Z,26.87
2023-04-16T08:57:11.822Z,28.03
2023-04-16T08:59:40.108Z,28.60
2023-04-16T09:02:08.724Z,26.00
2023-04-16T09:04:38.521Z,26.37
2023-04-16T09:07:09.842Z,24.90
2023-04-16T09:09:39.959Z,22.63
2023-04-16T09:12:09.173Z,22.13
2023-04-16T09:14:38.186Z,24.07
2023-04-16T09:17:08.004Z,23.40
2023-04-16T09:19:38.300Z,23.43
2023-04-16T09:22:06.679Z,22.00
2023-04-16T09:24:35.915Z,22.73
2023-04-16T09:27:05.582Z,22.90
2023-04-16T09:29:37.271Z,21.17
2023-04-16T09:32:06.006Z,22.30
2023-04-16T09:34:34.555Z,20.33
2023-04-16T09:37:17.869Z,22.27
2023-04-16T09:39:46.424Z,23.07
2023-04-16T09:42:16.137Z,19.77
2023-04-16T09:44:44.415Z,21.10
2023-04-16T09:47:12.933Z,20.33
2023-04-16T09:49:43.452Z,18.20
2023-04-16T09:52:15.419Z,17.60
2023-04-16T09:54:50.495Z,17.50
2023-04-16T09:57:23.148Z,17.77
2023-04-16T09:59:54.098Z,17.93
2023-04-16T10:02:23.764Z,16.83
2023-04-16T10:04:53.407Z,15.43
2023-04-16T10:07:21.962Z,16.53
2023-04-16T10:09:52.429Z,15.93
2023-04-16T10:12:20.661Z,16.00
2023-04-16T10:14:50.697Z,16.03
2023-04-16T10:17:21.151Z,16.77
2023-04-16T10:19:49.925Z,15.43
2023-04-16T10:22:18.387Z,16.57
2023-04-16T10:24:46.831Z,16.13
2023-04-16T10:27:15.107Z,16.20
2023-04-16T10:29:43.341Z,16.83
2023-04-16T10:32:13.370Z,14.53
2023-04-16T10:34:41.877Z,14.70
2023-04-16T10:37:10.089Z,13.90
2023-04-16T10:39:38.459Z,14.07
2023-04-16T10:42:10.446Z,15.03
2023-04-16T10:44:38.678Z,13.33
2023-04-16T10:47:13.604Z,13.57
2023-04-16T10:49:42.381Z,13.87
2023-04-16T10:52:12.521Z,14.00
2023-04-16T10:54:41.203Z,14.17
2023-04-16T10:57:10.723Z,13.60
2023-04-16T10:59:39.977Z,13.70
2023-04-16T11:02:09.657Z,13.43
2023-04-16T11:04:40.216Z,14.63
2023-04-16T11:07:09.886Z,13.87
2023-04-16T11:09:45.975Z,12.97
2023-04-16T11:12:15.081Z,12.57
2023-04-16T11:14:43.540Z,12.80
2023-04-16T11:17:11.958Z,12.53
2023-04-16T11:19:41.650Z,12.50
2023-04-16T11:22:10.493Z,12.23
2023-04-16T11:24:40.474Z,13.47
2023-04-16T11:27:08.740Z,12.53
2023-04-16T11:29:37.146Z,13.23
2023-04-16T11:32:05.461Z,13.40
2023-04-16T11:34:33.810Z,13.50
2023-04-16T11:37:03.588Z,13.90
2023-04-16T11:39:31.855Z,14.03
2023-04-16T11:42:00.096Z,14.13
2023-04-16T11:44:29.678Z,14.17
2023-04-16T11:46:57.990Z,13.53
2023-04-16T11:49:29.511Z,14.77
2023-04-16T11:51:58.756Z,14.03
2023-04-16T11:54:34.598Z,13.47
2023-04-16T11:57:04.340Z,14.23
2023-04-16T11:59:33.311Z,13.93
2023-04-16T12:02:01.768Z,14.30
2023-04-16T12:04:30.387Z,14.20
2023-04-16T12:07:08.702Z,17.77
2023-04-16T12:09:40.258Z,15.70
2023-04-16T12:12:26.694Z,13.70
2023-04-16T12:14:56.718Z,14.20
2023-04-16T12:17:25.399Z,13.97
2023-04-16T12:19:54.404Z,14.83
2023-04-16T12:22:28.668Z,15.33
2023-04-16T12:25:02.826Z,13.33
2023-04-16T12:27:48.617Z,13.97
2023-04-16T12:30:18.456Z,12.37
2023-04-16T12:32:47.846Z,13.27
2023-04-16T12:35:23.650Z,15.27
2023-04-16T12:37:52.219Z,13.07
2023-04-16T12:40:21.751Z,12.60
2023-04-16T12:42:49.939Z,11.73
2023-04-16T12:45:18.150Z,12.53
2023-04-16T12:47:46.457Z,12.07
2023-04-16T12:50:14.680Z,12.10
2023-04-16T12:52:42.891Z,11.97
2023-04-16T12:55:11.533Z,12.00
2023-04-16T12:57:41.173Z,12.23
2023-04-16T13:00:10.924Z,13.57
2023-04-16T13:02:39.941Z,11.73
2023-04-16T13:05:08.956Z,11.57
2023-04-16T13:07:37.205Z,11.73
2023-04-16T13:10:05.506Z,11.40
2023-04-16T13:12:33.731Z,11.87
2023-04-16T13:15:03.313Z,12.20
2023-04-16T13:17:31.835Z,10.47
2023-04-16T13:20:00.035Z,11.77
2023-04-16T13:22:28.306Z,11.27
2023-04-16T13:24:57.026Z,11.17
2023-04-16T13:27:25.408Z,10.80
2023-04-16T13:29:53.662Z,10.27
2023-04-16T13:32:23.267Z,10.30
2023-04-16T13:34:51.645Z,13.33
2023-04-16T13:37:19.909Z,10.47
2023-04-16T13:39:48.267Z,11.40
2023-04-16T13:42:16.751Z,10.30
2023-04-16T13:44:48.708Z,10.57
2023-04-16T13:47:17.005Z,15.37
2023-04-16T13:49:47.530Z,11.47
2023-04-16T13:52:15.758Z,10.47
2023-04-16T13:54:43.987Z,9.90
2023-04-16T13:57:12.586Z,9.63
2023-04-16T13:59:40.908Z,10.10
2023-04-16T14:02:09.533Z,10.43
2023-04-16T14:04:37.753Z,11.03
2023-04-16T14:07:07.378Z,9.93
2023-04-16T14:09:35.662Z,9.60
2023-04-16T14:12:03.993Z,10.40
2023-04-16T14:14:32.270Z,9.90
2023-04-16T14:17:00.981Z,11.53
2023-04-16T14:19:29.203Z,10.13
2023-04-16T14:21:57.369Z,10.27
2023-04-16T14:24:26.956Z,10.40
2023-04-16T14:26:55.176Z,9.87
2023-04-16T14:29:23.369Z,9.63
2023-04-16T14:31:51.771Z,11.07
2023-04-16T14:34:19.987Z,9.57
2023-04-16T14:36:49.080Z,11.13
2023-04-16T14:39:17.508Z,10.47
2023-04-16T14:41:47.071Z,12.47
2023-04-16T14:44:15.486Z,9.70
2023-04-16T14:46:43.728Z,12.10
2023-04-16T14:49:12.540Z,10.20
2023-04-16T14:51:40.907Z,10.57
2023-04-16T14:54:09.650Z,10.50
2023-04-16T14:56:37.879Z,10.53
2023-04-16T14:59:07.815Z,10.30
2023-04-16T15:01:39.703Z,11.97
2023-04-16T15:04:08.835Z,12.67
2023-04-16T15:06:38.199Z,12.37
2023-04-16T15:09:07.407Z,11.73
2023-04-16T15:11:35.708Z,11.27
2023-04-16T15:14:03.931Z,10.00
2023-04-16T15:16:33.561Z,11.40
2023-04-16T15:19:03.664Z,11.87
2023-04-16T15:21:33.131Z,10.80
2023-04-16T15:24:01.356Z,10.47
2023-04-16T15:26:29.624Z,11.10
2023-04-16T15:28:57.879Z,10.60
2023-04-16T15:31:26.349Z,10.13
2023-04-16T15:33:56.174Z,11.27
2023-04-16T15:36:24.417Z,10.40
2023-04-16T15:38:58.702Z,11.30
2023-04-16T15:41:26.938Z,9.90
2023-04-16T15:43:55.326Z,9.90
2023-04-16T15:46:23.649Z,11.20
2023-04-16T15:48:51.874Z,10.50
2023-04-16T15:51:21.530Z,10.37
2023-04-16T15:53:50.588Z,13.67
2023-04-16T15:56:18.790Z,11.70
2023-04-16T15:58:47.018Z,11.40
2023-04-16T16:01:15.205Z,11.73
2023-04-16T16:03:43.543Z,11.00
2023-04-16T16:06:13.081Z,10.90
2023-04-16T16:08:43.588Z,10.60
2023-04-16T16:11:12.289Z,10.97
2023-04-16T16:13:41.716Z,11.03
2023-04-16T16:16:10.101Z,11.37
2023-04-16T16:18:38.376Z,12.33
2023-04-16T16:21:07.094Z,10.43
2023-04-16T16:23:35.346Z,10.87
2023-04-16T16:26:06.079Z,9.83
2023-04-16T16:28:37.527Z,10.03
2023-04-16T16:31:06.021Z,11.13
2023-04-16T16:33:34.617Z,11.30
2023-04-16T16:36:02.847Z,11.23
2023-04-16T16:38:31.144Z,11.13
2023-04-16T16:40:59.395Z,10.73
2023-04-16T16:43:28.983Z,10.57
2023-04-16T16:45:57.355Z,11.03
2023-04-16T16:48:25.646Z,11.40
2023-04-16T16:50:54.128Z,10.50
2023-04-16T16:53:22.401Z,12.60
2023-04-16T16:55:50.685Z,10.17
2023-04-16T16:58:21.602Z,10.40
2023-04-16T17:00:54.892Z,10.97
2023-04-16T17:03:23.545Z,10.50
2023-04-16T17:05:55.070Z,10.43
2023-04-16T17:08:23.877Z,10.40
2023-04-16T17:10:52.389Z,11.87
2023-04-16T17:13:21.163Z,11.77
2023-04-16T17:15:49.518Z,13.57
2023-04-16T17:18:19.420Z,11.23
2023-04-16T17:20:47.880Z,12.17
2023-04-16T17:23:16.245Z,11.70
2023-04-16T17:25:44.618Z,10.13
2023-04-16T17:28:13.124Z,10.97
2023-04-16T17:30:41.582Z,11.93
2023-04-16T17:33:10.266Z,10.70
2023-04-16T17:35:41.256Z,11.90
2023-04-16T17:38:11.608Z,11.97
2023-04-16T17:40:51.973Z,12.00
2023-04-16T17:43:20.430Z,11.40
2023-04-16T17:45:50.613Z,10.80
2023-04-16T17:48:18.977Z,11.77
2023-04-16T17:50:49.795Z,12.57
2023-04-16T17:53:18.129Z,11.17
2023-04-16T17:55:52.420Z,11.27
2023-04-16T17:58:21.805Z,11.00
2023-04-16T18:00:50.251Z,12.17
2023-04-16T18:03:20.669Z,13.10
2023-04-16T18:05:52.004Z,11.83
2023-04-16T18:08:20.571Z,12.60
2023-04-16T18:10:51.273Z,13.53
2023-04-16T18:13:19.778Z,13.33
2023-04-16T18:15:48.405Z,11.67
2023-04-16T18:18:16.783Z,11.93
2023-04-16T18:20:45.138Z,11.67
2023-04-16T18:23:14.906Z,11.83
2023-04-16T18:25:43.385Z,12.23
2023-04-16T18:28:14.573Z,13.43
2023-04-16T18:30:42.987Z,13.33
2023-04-16T18:33:38.981Z,11.70
2023-04-16T18:36:02.158Z,12.27
2023-04-16T18:38:32.043Z,12.07
2023-04-16T18:41:01.926Z,12.17
2023-04-16T18:43:30.992Z,11.43
2023-04-16T18:45:59.293Z,15.20
2023-04-16T18:48:27.505Z,13.43
2023-04-16T18:50:58.061Z,13.83
2023-04-16T18:53:26.345Z,12.33
2023-04-16T18:55:56.167Z,14.20
2023-04-16T18:58:24.485Z,15.17
2023-04-16T19:00:54.355Z,13.97
2023-04-16T19:03:22.991Z,12.00
2023-04-16T19:05:51.494Z,12.30
2023-04-16T19:08:19.861Z,13.00
2023-04-16T19:10:48.542Z,12.17
2023-04-16T19:13:18.559Z,11.70
2023-04-16T19:15:47.024Z,12.67
2023-04-16T19:18:15.471Z,12.80
2023-04-16T19:20:44.126Z,13.10
2023-04-16T19:23:14.134Z,14.10
2023-04-16T19:25:42.825Z,12.40
2023-04-16T19:28:11.171Z,13.23
2023-04-16T19:30:41.757Z,12.93
2023-04-16T19:33:10.726Z,12.90
2023-04-16T19:35:39.286Z,12.77
2023-04-16T19:38:09.561Z,14.60
2023-04-16T19:40:39.998Z,12.73
2023-04-16T19:43:09.083Z,12.10
2023-04-16T19:45:37.497Z,15.63
2023-04-16T19:48:08.146Z,11.87
2023-04-16T19:50:36.508Z,12.53
2023-04-16T19:53:04.803Z,13.57
2023-04-16T19:55:33.128Z,13.73
2023-04-16T19:58:06.086Z,12.30
2023-04-16T20:00:35.106Z,12.77
2023-04-16T20:03:03.506Z,13.70
2023-04-16T20:05:33.360Z,13.17
2023-04-16T20:08:01.916Z,13.20
2023-04-16T20:10:31.487Z,13.27
2023-04-16T20:12:59.931Z,14.47
2023-04-16T20:15:28.321Z,16.87
2023-04-16T20:17:56.974Z,13.70
2023-04-16T20:20:25.494Z,12.83
2023-04-16T20:22:55.424Z,12.57
2023-04-16T20:25:26.219Z,14.63
2023-04-16T20:27:54.516Z,14.10
2023-04-16T20:30:24.428Z,14.37
2023-04-16T20:32:52.779Z,15.90
2023-04-16T20:35:21.197Z,15.23
2023-04-16T20:37:49.460Z,18.23
2023-04-16T20:40:19.264Z,16.30
2023-04-16T20:42:47.604Z,16.27
2023-04-16T20:45:15.974Z,15.30
2023-04-16T20:47:44.494Z,15.87
2023-04-16T20:50:13.507Z,14.70
2023-04-16T20:52:42.317Z,18.60
2023-04-16T20:55:10.826Z,16.77
2023-04-16T20:57:40.753Z,14.20
2023-04-16T21:00:11.802Z,15.43
2023-04-16T21:02:40.197Z,16.20
2023-04-16T21:05:10.456Z,15.87
2023-04-16T21:07:38.724Z,15.07
2023-04-16T21:10:07.576Z,17.63
2023-04-16T21:12:35.878Z,13.97
2023-04-16T21:15:05.730Z,14.60
2023-04-16T21:17:33.989Z,17.13
2023-04-16T21:20:02.269Z,14.97
2023-04-16T21:22:30.522Z,16.67
2023-04-16T21:24:58.746Z,15.17
2023-04-16T21:27:27.096Z,15.90
2023-04-16T21:29:55.421Z,15.83
2023-04-16T21:32:25.173Z,14.50
2023-04-16T21:34:53.809Z,16.00
2023-04-16T21:37:22.109Z,15.73
2023-04-16T21:39:50.556Z,15.73
2023-04-16T21:42:18.830Z,18.17
2023-04-16T21:44:47.183Z,16.63
2023-04-16T21:47:15.467Z,15.77
2023-04-16T21:49:45.416Z,15.73
2023-04-16T21:52:18.106Z,17.67
2023-04-16T21:54:46.612Z,16.87
2023-04-16T21:57:15.546Z,14.97
2023-04-16T21:59:44.050Z,15.83
2023-04-16T22:02:12.541Z,15.50
2023-04-16T22:04:41.889Z,15.33
2023-04-16T22:07:11.805Z,14.80
2023-04-16T22:09:40.450Z,15.93
2023-04-16T22:12:10.161Z,15.50
2023-04-16T22:14:44.094Z,15.10
2023-04-16T22:17:15.090Z,16.53
2023-04-16T22:19:44.493Z,17.23
2023-04-16T22:22:14.409Z,16.00
2023-04-16T22:24:42.672Z,16.90
2023-04-16T22:27:10.985Z,15.57
2023-04-16T22:29:39.213Z,16.33
2023-04-16T22:32:07.648Z,15.97
2023-04-16T22:34:36.067Z,17.47
2023-04-16T22:37:04.545Z,16.47
2023-04-16T22:39:34.188Z,17.00
2023-04-16T22:42:02.866Z,17.00
2023-04-16T22:44:31.270Z,17.27
2023-04-16T22:46:59.727Z,16.40
2023-04-16T22:49:32.910Z,16.77
2023-04-16T22:52:01.593Z,15.97
2023-04-16T22:54:30.109Z,17.00
2023-04-16T22:56:59.982Z,16.87
2023-04-16T22:59:28.241Z,17.43
2023-04-16T23:01:56.609Z,17.03
2023-04-16T23:04:24.995Z,17.70
2023-04-16T23:06:53.462Z,15.50
2023-04-16T23:09:22.457Z,19.57
2023-04-16T23:11:50.813Z,18.93
2023-04-16T23:14:21.266Z,17.10
2023-04-16T23:16:49.517Z,17.50
2023-04-16T23:19:17.756Z,18.10
2023-04-16T23:21:46.014Z,18.47
2023-04-16T23:24:14.213Z,21.53
2023-04-16T23:26:42.473Z,18.43
2023-04-16T23:29:11.026Z,18.93
2023-04-16T23:31:40.913Z,19.93
2023-04-16T23:34:09.137Z,21.00
2023-04-16T23:36:37.358Z,20.03
2023-04-16T23:39:05.654Z,20.97
2023-04-16T23:41:33.903Z,21.30
2023-04-16T23:44:02.160Z,20.57
2023-04-16T23:46:30.521Z,20.13
2023-04-16T23:49:00.123Z,20.57
2023-04-16T23:51:28.364Z,21.73
2023-04-16T23:53:56.641Z,20.73
2023-04-16T23:56:24.825Z,21.23
2023-04-16T23:58:53.030Z,21.40
